sensor_id;sensor_type;location;lat;lon;timestamp;pressure;altitude;pressure_sealevel;temperature;humidity
3844;BME280;1937;51.444;6.484;2023-08-30T00:01:54;68444.41;;;15.86;90.44
3844;BME280;1937;51.444;6.484;2023-08-30T00:04:21;68457.59;;;15.95;90.53
3844;BME280;1937;51.444;6.484;2023-08-30T00:06:47;68434.72;;;15.91;89.90
3844;BME280;1937;51.444;6.484;2023-08-30T00:09:14;68397.34;;;15.84;90.41
3844;BME280;1937;51.444;6.484;2023-08-30T00:11:41;68415.03;;;15.88;90.21
3844;BME280;1937;51.444;6.484;2023-08-30T00:14:09;68445.22;;;15.96;89.97
3844;BME280;1937;51.444;6.484;2023-08-30T00:16:36;68441.91;;;15.91;90.47
3844;BME280;1937;51.444;6.484;2023-08-30T00:19:03;68407.22;;;15.88;90.08
3844;BME280;1937;51.444;6.484;2023-08-30T00:21:30;68440.16;;;15.89;90.44
3844;BME280;1937;51.444;6.484;2023-08-30T00:23:56;68361.63;;;15.57;91.34
3844;BME280;1937;51.444;6.484;2023-08-30T00:26:23;68442.31;;;15.82;90.65
3844;BME280;1937;51.444;6.484;2023-08-30T00:28:49;68356.94;;;15.53;91.53
3844;BME280;1937;51.444;6.484;2023-08-30T00:31:17;68411.75;;;15.56;92.14
3844;BME280;1937;51.444;6.484;2023-08-30T00:33:44;68392.59;;;15.64;91.57
3844;BME280;1937;51.444;6.484;2023-08-30T00:36:11;68416.88;;;15.67;91.59
3844;BME280;1937;51.444;6.484;2023-08-30T00:38:37;68431.13;;;15.73;90.83
3844;BME280;1937;51.444;6.484;2023-08-30T00:41:04;68416.22;;;15.62;91.17
3844;BME280;1937;51.444;6.484;2023-08-30T00:43:33;68357.50;;;15.54;91.48
3844;BME280;1937;51.444;6.484;2023-08-30T00:46:00;68402.34;;;15.48;92.30
3844;BME280;1937;51.444;6.484;2023-08-30T00:48:28;68406.78;;;15.65;91.21
3844;BME280;1937;51.444;6.484;2023-08-30T00:50:55;68400.31;;;15.60;91.41
3844;BME280;1937;51.444;6.484;2023-08-30T00:53:21;68376.94;;;15.60;90.91
3844;BME280;1937;51.444;6.484;2023-08-30T00:55:48;68384.50;;;15.50;91.19
3844;BME280;1937;51.444;6.484;2023-08-30T00:58:17;68412.97;;;15.46;91.60
3844;BME280;1937;51.444;6.484;2023-08-30T01:00:44;68367.50;;;15.36;91.83
3844;BME280;1937;51.444;6.484;2023-08-30T01:03:12;68393.63;;;15.45;91.20
3844;BME280;1937;51.444;6.484;2023-08-30T01:05:40;68356.72;;;15.44;91.32
3844;BME280;1937;51.444;6.484;2023-08-30T01:08:07;68328.22;;;15.33;91.74
3844;BME280;1937;51.444;6.484;2023-08-30T01:10:43;68373.84;;;15.37;91.71
3844;BME280;1937;51.444;6.484;2023-08-30T01:13:20;68362.78;;;15.32;91.45
3844;BME280;1937;51.444;6.484;2023-08-30T01:15:48;68348.38;;;15.33;91.47
3844;BME280;1937;51.444;6.484;2023-08-30T01:18:20;68356.44;;;15.31;91.42
3844;BME280;1937;51.444;6.484;2023-08-30T01:20:51;68323.00;;;15.18;92.05
3844;BME280;1937;51.444;6.484;2023-08-30T01:23:27;68323.44;;;15.25;92.09
3844;BME280;1937;51.444;6.484;2023-08-30T01:25:57;68377.06;;;15.26;91.92
3844;BME280;1937;51.444;6.484;2023-08-30T01:28:33;68367.97;;;15.32;91.93
3844;BME280;1937;51.444;6.484;2023-08-30T01:31:00;68323.75;;;15.11;92.47
3844;BME280;1937;51.444;6.484;2023-08-30T01:33:27;68345.66;;;15.12;92.43
3844;BME280;1937;51.444;6.484;2023-08-30T01:35:55;68332.72;;;15.12;92.31
3844;BME280;1937;51.444;6.484;2023-08-30T01:38:24;68382.75;;;15.22;91.95
3844;BME280;1937;51.444;6.484;2023-08-30T01:40:51;68343.09;;;15.12;92.03
3844;BME280;1937;51.444;6.484;2023-08-30T01:43:23;68346.66;;;15.04;92.85
3844;BME280;1937;51.444;6.484;2023-08-30T01:45:52;68308.00;;;15.02;93.03
3844;BME280;1937;51.444;6.484;2023-08-30T01:48:22;68342.41;;;15.07;92.91
3844;BME280;1937;51.444;6.484;2023-08-30T01:50:50;68360.28;;;15.09;93.19
3844;BME280;1937;51.444;6.484;2023-08-30T01:53:16;68336.94;;;15.09;92.98
3844;BME280;1937;51.444;6.484;2023-08-30T01:55:43;68372.97;;;15.23;92.73
3844;BME280;1937;51.444;6.484;2023-08-30T01:58:15;68377.66;;;15.27;92.60
3844;BME280;1937;51.444;6.484;2023-08-30T02:00:42;68415.03;;;15.34;92.53
3844;BME280;1937;51.444;6.484;2023-08-30T02:03:12;68399.53;;;15.39;92.65
3844;BME280;1937;51.444;6.484;2023-08-30T02:05:52;68420.50;;;15.48;91.78
3844;BME280;1937;51.444;6.484;2023-08-30T02:08:22;68435.81;;;15.50;92.02
3844;BME280;1937;51.444;6.484;2023-08-30T02:10:56;68412.00;;;15.54;91.79
3844;BME280;1937;51.444;6.484;2023-08-30T02:13:28;68425.44;;;15.50;92.45
3844;BME280;1937;51.444;6.484;2023-08-30T02:15:59;68442.31;;;15.55;92.61
3844;BME280;1937;51.444;6.484;2023-08-30T02:18:28;68473.66;;;15.65;92.51
3844;BME280;1937;51.444;6.484;2023-08-30T02:20:55;68459.50;;;15.64;92.73
3844;BME280;1937;51.444;6.484;2023-08-30T02:23:23;68499.94;;;15.78;91.74
3844;BME280;1937;51.444;6.484;2023-08-30T02:25:50;68491.69;;;15.71;91.61
3844;BME280;1937;51.444;6.484;2023-08-30T02:28:17;68487.22;;;15.65;91.43
3844;BME280;1937;51.444;6.484;2023-08-30T02:30:43;68454.94;;;15.53;92.18
3844;BME280;1937;51.444;6.484;2023-08-30T02:33:10;68454.66;;;15.66;91.29
3844;BME280;1937;51.444;6.484;2023-08-30T02:35:38;68498.63;;;15.73;91.07
3844;BME280;1937;51.444;6.484;2023-08-30T02:38:04;68446.47;;;15.75;91.15
3844;BME280;1937;51.444;6.484;2023-08-30T02:40:32;68484.00;;;15.76;91.27
3844;BME280;1937;51.444;6.484;2023-08-30T02:42:59;68469.09;;;15.81;91.07
3844;BME280;1937;51.444;6.484;2023-08-30T02:45:26;68500.53;;;15.68;91.02
3844;BME280;1937;51.444;6.484;2023-08-30T02:47:55;68484.69;;;15.81;91.09
3844;BME280;1937;51.444;6.484;2023-08-30T02:50:21;68513.94;;;15.86;90.78
3844;BME280;1937;51.444;6.484;2023-08-30T02:52:50;68467.59;;;15.77;90.87
3844;BME280;1937;51.444;6.484;2023-08-30T02:55:16;68450.53;;;15.63;91.28
3844;BME280;1937;51.444;6.484;2023-08-30T02:57:43;68446.94;;;15.55;91.59
3844;BME280;1937;51.444;6.484;2023-08-30T03:00:12;68429.94;;;15.45;91.94
3844;BME280;1937;51.444;6.484;2023-08-30T03:02:41;68430.44;;;15.41;92.04
3844;BME280;1937;51.444;6.484;2023-08-30T03:05:08;68378.25;;;15.27;92.27
3844;BME280;1937;51.444;6.484;2023-08-30T03:07:35;68328.25;;;15.06;93.06
3844;BME280;1937;51.444;6.484;2023-08-30T03:10:03;68402.09;;;15.23;93.27
3844;BME280;1937;51.444;6.484;2023-08-30T03:12:30;68452.16;;;15.33;92.74
3844;BME280;1937;51.444;6.484;2023-08-30T03:14:56;68337.00;;;14.98;93.29
3844;BME280;1937;51.444;6.484;2023-08-30T03:17:23;68370.63;;;14.94;94.32
3844;BME280;1937;51.444;6.484;2023-08-30T03:19:51;68376.97;;;14.95;94.72
3844;BME280;1937;51.444;6.484;2023-08-30T03:22:20;68387.63;;;15.08;93.91
3844;BME280;1937;51.444;6.484;2023-08-30T03:24:47;68374.38;;;15.22;93.48
3844;BME280;1937;51.444;6.484;2023-08-30T03:27:16;68437.00;;;15.24;93.22
3844;BME280;1937;51.444;6.484;2023-08-30T03:29:44;68469.72;;;15.32;92.71
3844;BME280;1937;51.444;6.484;2023-08-30T03:32:15;68458.28;;;15.36;92.80
3844;BME280;1937;51.444;6.484;2023-08-30T03:34:43;68424.81;;;15.34;91.92
3844;BME280;1937;51.444;6.484;2023-08-30T03:37:12;68356.72;;;14.91;93.48
3844;BME280;1937;51.444;6.484;2023-08-30T03:39:39;68286.38;;;14.61;95.92
3844;BME280;1937;51.444;6.484;2023-08-30T03:42:06;68369.25;;;14.84;96.05
3844;BME280;1937;51.444;6.484;2023-08-30T03:44:34;68355.94;;;14.81;95.79
3844;BME280;1937;51.444;6.484;2023-08-30T03:47:01;68415.28;;;14.94;95.80
3844;BME280;1937;51.444;6.484;2023-08-30T03:49:28;68409.06;;;14.87;95.72
3844;BME280;1937;51.444;6.484;2023-08-30T03:51:59;68340.63;;;14.79;95.93
3844;BME280;1937;51.444;6.484;2023-08-30T03:54:26;68368.06;;;14.83;96.33
3844;BME280;1937;51.444;6.484;2023-08-30T03:56:55;68418.06;;;15.03;95.78
3844;BME280;1937;51.444;6.484;2023-08-30T03:59:22;68387.63;;;14.82;95.80
3844;BME280;1937;51.444;6.484;2023-08-30T04:01:51;68410.72;;;14.84;95.60
3844;BME280;1937;51.444;6.484;2023-08-30T04:04:18;68414.94;;;14.92;96.08
3844;BME280;1937;51.444;6.484;2023-08-30T04:06:48;68376.19;;;14.85;95.37
3844;BME280;1937;51.444;6.484;2023-08-30T04:09:14;68346.69;;;14.55;96.79
3844;BME280;1937;51.444;6.484;2023-08-30T04:11:41;68310.00;;;14.48;97.48
3844;BME280;1937;51.444;6.484;2023-08-30T04:14:08;68309.78;;;14.39;98.10
3844;BME280;1937;51.444;6.484;2023-08-30T04:16:35;68315.06;;;14.32;98.72
3844;BME280;1937;51.444;6.484;2023-08-30T04:19:04;68323.09;;;14.30;98.89
3844;BME280;1937;51.444;6.484;2023-08-30T04:21:30;68390.06;;;14.50;98.92
3844;BME280;1937;51.444;6.484;2023-08-30T04:23:57;68387.91;;;14.57;98.58
3844;BME280;1937;51.444;6.484;2023-08-30T04:26:24;68434.63;;;14.84;97.66
3844;BME280;1937;51.444;6.484;2023-08-30T04:28:50;68483.16;;;15.01;96.81
3844;BME280;1937;51.444;6.484;2023-08-30T04:31:17;68497.28;;;15.13;95.46
3844;BME280;1937;51.444;6.484;2023-08-30T04:33:43;68488.66;;;15.15;95.23
3844;BME280;1937;51.444;6.484;2023-08-30T04:36:11;68459.09;;;15.07;94.91
3844;BME280;1937;51.444;6.484;2023-08-30T04:38:38;68457.22;;;15.01;94.63
3844;BME280;1937;51.444;6.484;2023-08-30T04:41:05;68360.19;;;14.78;95.15
3844;BME280;1937;51.444;6.484;2023-08-30T04:43:31;68379.97;;;14.75;96.02
3844;BME280;1937;51.444;6.484;2023-08-30T04:45:58;68412.72;;;14.83;95.43
3844;BME280;1937;51.444;6.484;2023-08-30T04:48:24;68361.44;;;14.57;95.86
3844;BME280;1937;51.444;6.484;2023-08-30T04:50:58;68346.38;;;14.53;96.30
3844;BME280;1937;51.444;6.484;2023-08-30T04:53:26;68374.00;;;14.65;95.96
3844;BME280;1937;51.444;6.484;2023-08-30T04:55:53;68392.50;;;14.68;95.73
3844;BME280;1937;51.444;6.484;2023-08-30T04:58:22;68340.47;;;14.59;96.18
3844;BME280;1937;51.444;6.484;2023-08-30T05:00:49;68365.44;;;14.56;96.29
3844;BME280;1937;51.444;6.484;2023-08-30T05:03:16;68303.06;;;14.47;96.21
3844;BME280;1937;51.444;6.484;2023-08-30T05:05:45;68349.69;;;14.47;96.46
3844;BME280;1937;51.444;6.484;2023-08-30T05:08:11;68308.22;;;14.47;96.35
3844;BME280;1937;51.444;6.484;2023-08-30T05:10:39;68382.97;;;14.55;96.69
3844;BME280;1937;51.444;6.484;2023-08-30T05:13:08;68398.75;;;14.64;95.29
3844;BME280;1937;51.444;6.484;2023-08-30T05:15:35;68399.00;;;14.51;96.10
3844;BME280;1937;51.444;6.484;2023-08-30T05:18:01;68392.78;;;14.55;95.79
3844;BME280;1937;51.444;6.484;2023-08-30T05:20:28;68394.88;;;14.59;95.91
3844;BME280;1937;51.444;6.484;2023-08-30T05:22:55;68385.69;;;14.60;95.75
3844;BME280;1937;51.444;6.484;2023-08-30T05:25:26;68378.50;;;14.60;95.46
3844;BME280;1937;51.444;6.484;2023-08-30T05:27:57;68404.13;;;14.73;95.57
3844;BME280;1937;51.444;6.484;2023-08-30T05:30:23;68385.16;;;14.75;95.01
3844;BME280;1937;51.444;6.484;2023-08-30T05:32:52;68399.09;;;14.67;94.99
3844;BME280;1937;51.444;6.484;2023-08-30T05:35:18;68400.22;;;14.79;95.28
3844;BME280;1937;51.444;6.484;2023-08-30T05:37:45;68463.25;;;14.89;94.90
3844;BME280;1937;51.444;6.484;2023-08-30T05:40:13;68419.66;;;14.85;94.94
3844;BME280;1937;51.444;6.484;2023-08-30T05:42:42;68443.22;;;14.94;94.72
3844;BME280;1937;51.444;6.484;2023-08-30T05:45:11;68443.31;;;14.98;94.63
3844;BME280;1937;51.444;6.484;2023-08-30T05:47:37;68459.69;;;14.97;93.87
3844;BME280;1937;51.444;6.484;2023-08-30T05:50:05;68479.84;;;15.07;93.79
3844;BME280;1937;51.444;6.484;2023-08-30T05:52:32;68443.19;;;15.05;93.73
3844;BME280;1937;51.444;6.484;2023-08-30T05:54:58;68395.00;;;15.01;93.36
3844;BME280;1937;51.444;6.484;2023-08-30T05:57:25;68456.31;;;14.87;93.19
3844;BME280;1937;51.444;6.484;2023-08-30T05:59:54;68413.09;;;14.74;93.39
3844;BME280;1937;51.444;6.484;2023-08-30T06:02:22;68461.34;;;14.94;93.45
3844;BME280;1937;51.444;6.484;2023-08-30T06:04:49;68483.34;;;15.10;93.04
3844;BME280;1937;51.444;6.484;2023-08-30T06:07:15;68486.16;;;15.31;92.33
3844;BME280;1937;51.444;6.484;2023-08-30T06:09:44;68494.25;;;15.33;91.43
3844;BME280;1937;51.444;6.484;2023-08-30T06:12:10;68511.38;;;15.37;91.21
3844;BME280;1937;51.444;6.484;2023-08-30T06:14:37;68448.56;;;15.25;91.62
3844;BME280;1937;51.444;6.484;2023-08-30T06:17:03;68496.69;;;15.51;91.29
3844;BME280;1937;51.444;6.484;2023-08-30T06:19:34;68551.31;;;15.67;90.93
3844;BME280;1937;51.444;6.484;2023-08-30T06:22:03;68553.63;;;15.69;90.32
3844;BME280;1937;51.444;6.484;2023-08-30T06:24:29;68551.31;;;15.67;91.06
3844;BME280;1937;51.444;6.484;2023-08-30T06:26:56;68594.09;;;15.83;90.29
3844;BME280;1937;51.444;6.484;2023-08-30T06:29:23;68618.13;;;16.00;90.01
3844;BME280;1937;51.444;6.484;2023-08-30T06:31:49;68631.56;;;16.07;89.40
3844;BME280;1937;51.444;6.484;2023-08-30T06:34:16;68611.69;;;16.21;88.99
3844;BME280;1937;51.444;6.484;2023-08-30T06:36:44;68632.69;;;16.30;88.08
3844;BME280;1937;51.444;6.484;2023-08-30T06:39:11;68632.88;;;16.39;87.57
3844;BME280;1937;51.444;6.484;2023-08-30T06:41:37;68635.25;;;16.41;87.63
3844;BME280;1937;51.444;6.484;2023-08-30T06:44:05;68616.63;;;16.23;87.96
3844;BME280;1937;51.444;6.484;2023-08-30T06:46:31;68608.03;;;16.24;87.30
3844;BME280;1937;51.444;6.484;2023-08-30T06:48:58;68585.63;;;16.05;88.39
3844;BME280;1937;51.444;6.484;2023-08-30T06:51:24;68617.38;;;16.17;88.41
3844;BME280;1937;51.444;6.484;2023-08-30T06:53:53;68558.03;;;15.97;88.67
3844;BME280;1937;51.444;6.484;2023-08-30T06:56:25;68544.00;;;16.01;89.72
3844;BME280;1937;51.444;6.484;2023-08-30T06:58:52;68603.69;;;16.12;89.29
3844;BME280;1937;51.444;6.484;2023-08-30T07:01:18;68629.28;;;16.20;88.33
3844;BME280;1937;51.444;6.484;2023-08-30T07:03:45;68632.19;;;16.34;88.09
3844;BME280;1937;51.444;6.484;2023-08-30T07:06:11;68643.66;;;16.30;88.12
3844;BME280;1937;51.444;6.484;2023-08-30T07:08:40;68671.84;;;16.50;87.34
3844;BME280;1937;51.444;6.484;2023-08-30T07:11:07;68756.41;;;16.83;87.43
3844;BME280;1937;51.444;6.484;2023-08-30T07:13:34;68689.47;;;16.88;85.79
3844;BME280;1937;51.444;6.484;2023-08-30T07:16:01;68799.56;;;17.24;85.11
3844;BME280;1937;51.444;6.484;2023-08-30T07:18:29;68880.16;;;17.69;82.54
3844;BME280;1937;51.444;6.484;2023-08-30T07:20:55;68927.31;;;18.05;81.74
3844;BME280;1937;51.444;6.484;2023-08-30T07:23:22;68951.59;;;18.41;78.71
3844;BME280;1937;51.444;6.484;2023-08-30T07:25:52;68953.31;;;18.54;76.89
3844;BME280;1937;51.444;6.484;2023-08-30T07:28:20;68960.38;;;18.71;76.30
3844;BME280;1937;51.444;6.484;2023-08-30T07:30:47;68957.38;;;18.79;74.84
3844;BME280;1937;51.444;6.484;2023-08-30T07:33:13;68918.41;;;18.73;75.45
3844;BME280;1937;51.444;6.484;2023-08-30T07:35:40;68946.44;;;18.84;75.30
3844;BME280;1937;51.444;6.484;2023-08-30T07:38:06;68933.78;;;18.75;75.65
3844;BME280;1937;51.444;6.484;2023-08-30T07:40:33;68966.31;;;18.92;75.28
3844;BME280;1937;51.444;6.484;2023-08-30T07:43:00;69017.09;;;19.19;74.10
3844;BME280;1937;51.444;6.484;2023-08-30T07:45:27;68985.06;;;19.14;73.39
3844;BME280;1937;51.444;6.484;2023-08-30T07:47:54;68886.09;;;18.81;75.01
3844;BME280;1937;51.444;6.484;2023-08-30T07:50:22;68934.03;;;19.15;72.85
3844;BME280;1937;51.444;6.484;2023-08-30T07:52:48;69045.78;;;19.57;72.45
3844;BME280;1937;51.444;6.484;2023-08-30T07:55:15;69051.09;;;19.62;71.81
3844;BME280;1937;51.444;6.484;2023-08-30T07:57:41;69149.81;;;20.04;71.03
3844;BME280;1937;51.444;6.484;2023-08-30T08:00:09;69150.69;;;20.02;71.17
3844;BME280;1937;51.444;6.484;2023-08-30T08:02:40;69056.44;;;19.82;68.48
3844;BME280;1937;51.444;6.484;2023-08-30T08:05:07;68976.75;;;19.61;69.04
3844;BME280;1937;51.444;6.484;2023-08-30T08:07:38;68974.72;;;19.61;68.42
3844;BME280;1937;51.444;6.484;2023-08-30T08:10:05;68982.50;;;19.73;68.41
3844;BME280;1937;51.444;6.484;2023-08-30T08:12:32;69045.63;;;19.64;68.88
3844;BME280;1937;51.444;6.484;2023-08-30T08:14:59;68992.19;;;19.79;68.27
3844;BME280;1937;51.444;6.484;2023-08-30T08:17:26;69004.34;;;19.76;68.57
3844;BME280;1937;51.444;6.484;2023-08-30T08:19:54;68959.31;;;19.59;68.22
3844;BME280;1937;51.444;6.484;2023-08-30T08:22:20;68853.38;;;19.13;68.53
3844;BME280;1937;51.444;6.484;2023-08-30T08:24:48;68706.75;;;18.55;70.68
3844;BME280;1937;51.444;6.484;2023-08-30T08:27:16;68757.28;;;18.47;73.37
3844;BME280;1937;51.444;6.484;2023-08-30T08:29:43;68671.66;;;17.91;77.40
3844;BME280;1937;51.444;6.484;2023-08-30T08:32:10;68602.06;;;17.53;79.90
3844;BME280;1937;51.444;6.484;2023-08-30T08:34:38;68563.81;;;17.05;82.71
3844;BME280;1937;51.444;6.484;2023-08-30T08:37:28;68506.28;;;16.60;86.05
3844;BME280;1937;51.444;6.484;2023-08-30T08:40:00;68545.50;;;16.58;86.37
3844;BME280;1937;51.444;6.484;2023-08-30T08:42:34;68500.19;;;16.46;88.16
3844;BME280;1937;51.444;6.484;2023-08-30T08:45:23;68511.78;;;16.20;91.55
3844;BME280;1937;51.444;6.484;2023-08-30T08:47:51;68531.25;;;15.98;94.79
3844;BME280;1937;51.444;6.484;2023-08-30T08:50:20;68583.81;;;15.88;97.36
3844;BME280;1937;51.444;6.484;2023-08-30T08:52:49;68641.03;;;15.92;98.17
3844;BME280;1937;51.444;6.484;2023-08-30T08:55:17;68644.19;;;16.04;98.30
3844;BME280;1937;51.444;6.484;2023-08-30T08:57:44;68692.84;;;16.10;98.26
3844;BME280;1937;51.444;6.484;2023-08-30T09:00:13;68638.69;;;15.90;98.08
3844;BME280;1937;51.444;6.484;2023-08-30T09:02:43;68654.06;;;15.70;99.83
3844;BME280;1937;51.444;6.484;2023-08-30T09:05:11;68634.72;;;15.58;100.00
3844;BME280;1937;51.444;6.484;2023-08-30T09:07:39;68714.47;;;15.75;100.00
3844;BME280;1937;51.444;6.484;2023-08-30T09:10:08;68779.50;;;15.91;100.00
3844;BME280;1937;51.444;6.484;2023-08-30T09:12:35;68814.94;;;15.99;100.00
3844;BME280;1937;51.444;6.484;2023-08-30T09:15:02;68840.56;;;16.08;100.00
3844;BME280;1937;51.444;6.484;2023-08-30T09:17:36;68901.25;;;16.11;100.00
3844;BME280;1937;51.444;6.484;2023-08-30T09:20:11;68990.25;;;16.33;100.00
3844;BME280;1937;51.444;6.484;2023-08-30T09:22:49;68877.19;;;16.17;100.00
3844;BME280;1937;51.444;6.484;2023-08-30T09:25:25;68894.53;;;16.07;100.00
3844;BME280;1937;51.444;6.484;2023-08-30T09:28:21;68916.84;;;16.11;100.00
3844;BME280;1937;51.444;6.484;2023-08-30T09:30:50;68917.66;;;16.09;100.00
3844;BME280;1937;51.444;6.484;2023-08-30T09:33:20;68925.81;;;16.12;100.00
3844;BME280;1937;51.444;6.484;2023-08-30T09:35:47;68959.00;;;16.11;100.00
3844;BME280;1937;51.444;6.484;2023-08-30T09:38:17;68975.31;;;16.16;100.00
3844;BME280;1937;51.444;6.484;2023-08-30T09:40:46;68918.13;;;16.05;100.00
3844;BME280;1937;51.444;6.484;2023-08-30T09:43:21;68932.06;;;16.08;100.00
3844;BME280;1937;51.444;6.484;2023-08-30T09:45:50;68959.06;;;15.93;100.00
3844;BME280;1937;51.444;6.484;2023-08-30T09:48:31;68949.78;;;16.01;100.00
3844;BME280;1937;51.444;6.484;2023-08-30T09:50:59;69025.06;;;16.19;100.00
3844;BME280;1937;51.444;6.484;2023-08-30T09:53:28;69008.88;;;16.18;100.00
3844;BME280;1937;51.444;6.484;2023-08-30T09:55:58;69052.31;;;16.42;100.00
3844;BME280;1937;51.444;6.484;2023-08-30T09:58:27;69159.78;;;16.34;100.00
3844;BME280;1937;51.444;6.484;2023-08-30T10:00:58;69065.53;;;16.40;100.00
3844;BME280;1937;51.444;6.484;2023-08-30T10:03:28;69038.13;;;16.41;100.00
3844;BME280;1937;51.444;6.484;2023-08-30T10:05:56;69071.41;;;16.34;100.00
3844;BME280;1937;51.444;6.484;2023-08-30T10:08:29;69046.31;;;16.26;100.00
3844;BME280;1937;51.444;6.484;2023-08-30T10:11:00;69013.47;;;16.18;100.00
3844;BME280;1937;51.444;6.484;2023-08-30T10:13:33;69054.31;;;16.13;100.00
3844;BME280;1937;51.444;6.484;2023-08-30T10:16:10;69025.28;;;16.17;100.00
3844;BME280;1937;51.444;6.484;2023-08-30T10:18:59;68954.34;;;15.89;100.00
3844;BME280;1937;51.444;6.484;2023-08-30T10:21:29;69024.00;;;15.93;100.00
3844;BME280;1937;51.444;6.484;2023-08-30T10:23:58;68897.38;;;15.65;100.00
3844;BME280;1937;51.444;6.484;2023-08-30T10:26:32;68869.69;;;15.46;100.00
3844;BME280;1937;51.444;6.484;2023-08-30T10:29:01;68883.97;;;15.51;100.00
3844;BME280;1937;51.444;6.484;2023-08-30T10:31:28;68893.34;;;15.55;100.00
3844;BME280;1937;51.444;6.484;2023-08-30T10:33:56;68936.69;;;15.50;100.00
3844;BME280;1937;51.444;6.484;2023-08-30T10:36:26;68897.13;;;15.38;100.00
3844;BME280;1937;51.444;6.484;2023-08-30T10:38:57;68861.38;;;15.28;100.00
3844;BME280;1937;51.444;6.484;2023-08-30T10:41:25;68905.56;;;15.21;100.00
3844;BME280;1937;51.444;6.484;2023-08-30T10:43:55;68907.94;;;15.23;100.00
3844;BME280;1937;51.444;6.484;2023-08-30T10:46:32;68959.16;;;15.29;100.00
3844;BME280;1937;51.444;6.484;2023-08-30T10:49:08;68940.53;;;15.33;100.00
3844;BME280;1937;51.444;6.484;2023-08-30T10:51:37;69054.28;;;15.55;100.00
3844;BME280;1937;51.444;6.484;2023-08-30T10:54:11;68979.16;;;15.42;100.00
3844;BME280;1937;51.444;6.484;2023-08-30T10:56:53;69011.09;;;15.40;100.00
3844;BME280;1937;51.444;6.484;2023-08-30T10:59:23;69081.91;;;15.63;100.00
3844;BME280;1937;51.444;6.484;2023-08-30T11:01:51;69079.19;;;15.59;100.00
3844;BME280;1937;51.444;6.484;2023-08-30T11:04:22;69064.94;;;15.64;100.00
3844;BME280;1937;51.444;6.484;2023-08-30T11:06:50;69017.34;;;15.54;100.00
3844;BME280;1937;51.444;6.484;2023-08-30T11:09:17;69109.94;;;15.56;100.00
3844;BME280;1937;51.444;6.484;2023-08-30T11:11:45;69138.28;;;15.76;100.00
3844;BME280;1937;51.444;6.484;2023-08-30T11:14:12;69099.22;;;15.71;100.00
3844;BME280;1937;51.444;6.484;2023-08-30T11:16:41;69154.69;;;15.74;100.00
3844;BME280;1937;51.444;6.484;2023-08-30T11:19:14;69139.25;;;15.79;100.00
3844;BME280;1937;51.444;6.484;2023-08-30T11:21:44;69136.88;;;15.77;100.00
3844;BME280;1937;51.444;6.484;2023-08-30T11:24:11;69183.91;;;15.86;100.00
3844;BME280;1937;51.444;6.484;2023-08-30T11:26:41;69186.59;;;15.97;100.00
3844;BME280;1937;51.444;6.484;2023-08-30T11:29:10;69228.75;;;15.97;100.00
3844;BME280;1937;51.444;6.484;2023-08-30T11:31:41;69275.38;;;16.11;100.00
3844;BME280;1937;51.444;6.484;2023-08-30T11:34:11;69241.06;;;16.04;100.00
3844;BME280;1937;51.444;6.484;2023-08-30T11:36:38;69321.44;;;16.23;100.00
3844;BME280;1937;51.444;6.484;2023-08-30T11:39:14;69270.72;;;16.18;100.00
3844;BME280;1937;51.444;6.484;2023-08-30T11:41:56;69307.63;;;16.25;100.00
3844;BME280;1937;51.444;6.484;2023-08-30T11:44:29;69346.63;;;16.43;100.00
3844;BME280;1937;51.444;6.484;2023-08-30T11:47:01;69261.28;;;16.21;100.00
3844;BME280;1937;51.444;6.484;2023-08-30T11:49:28;69364.16;;;16.49;100.00
3844;BME280;1937;51.444;6.484;2023-08-30T11:51:57;69386.66;;;16.63;100.00
3844;BME280;1937;51.444;6.484;2023-08-30T11:54:24;69412.69;;;16.81;100.00
3844;BME280;1937;51.444;6.484;2023-08-30T11:56:51;69384.88;;;16.79;100.00
3844;BME280;1937;51.444;6.484;2023-08-30T11:59:19;69361.84;;;16.64;100.00
3844;BME280;1937;51.444;6.484;2023-08-30T12:01:55;69371.78;;;16.68;100.00
3844;BME280;1937;51.444;6.484;2023-08-30T12:04:26;69411.06;;;16.84;100.00
3844;BME280;1937;51.444;6.484;2023-08-30T12:06:53;69346.00;;;16.66;100.00
3844;BME280;1937;51.444;6.484;2023-08-30T12:09:30;69299.03;;;16.62;100.00
3844;BME280;1937;51.444;6.484;2023-08-30T12:12:29;69340.88;;;16.60;100.00
3844;BME280;1937;51.444;6.484;2023-08-30T12:14:56;69307.22;;;16.64;100.00
3844;BME280;1937;51.444;6.484;2023-08-30T12:17:23;69379.22;;;16.66;100.00
3844;BME280;1937;51.444;6.484;2023-08-30T12:19:56;69302.38;;;16.49;100.00
3844;BME280;1937;51.444;6.484;2023-08-30T12:22:23;69268.94;;;16.34;100.00
3844;BME280;1937;51.444;6.484;2023-08-30T12:24:50;69209.31;;;16.21;100.00
3844;BME280;1937;51.444;6.484;2023-08-30T12:27:16;69313.13;;;16.34;100.00
3844;BME280;1937;51.444;6.484;2023-08-30T12:29:43;69316.84;;;16.42;100.00
3844;BME280;1937;51.444;6.484;2023-08-30T12:32:09;69342.78;;;16.48;100.00
3844;BME280;1937;51.444;6.484;2023-08-30T12:34:36;69355.66;;;16.61;100.00
3844;BME280;1937;51.444;6.484;2023-08-30T12:37:05;69423.38;;;16.72;100.00
3844;BME280;1937;51.444;6.484;2023-08-30T12:39:34;69446.69;;;16.79;100.00
3844;BME280;1937;51.444;6.484;2023-08-30T12:42:01;69518.19;;;16.98;100.00
3844;BME280;1937;51.444;6.484;2023-08-30T12:44:27;69448.88;;;16.83;100.00
3844;BME280;1937;51.444;6.484;2023-08-30T12:46:54;69468.00;;;16.93;100.00
3844;BME280;1937;51.444;6.484;2023-08-30T12:49:24;69348.72;;;16.53;100.00
3844;BME280;1937;51.444;6.484;2023-08-30T12:51:59;69323.00;;;16.45;100.00
3844;BME280;1937;51.444;6.484;2023-08-30T12:54:27;69260.59;;;16.27;100.00
3844;BME280;1937;51.444;6.484;2023-08-30T12:56:59;69317.56;;;16.29;100.00
3844;BME280;1937;51.444;6.484;2023-08-30T12:59:26;69303.25;;;16.23;100.00
3844;BME280;1937;51.444;6.484;2023-08-30T13:01:53;69279.69;;;16.19;100.00
3844;BME280;1937;51.444;6.484;2023-08-30T13:04:22;69316.97;;;16.28;100.00
3844;BME280;1937;51.444;6.484;2023-08-30T13:06:51;69337.81;;;16.22;100.00
3844;BME280;1937;51.444;6.484;2023-08-30T13:09:18;69324.97;;;16.26;100.00
3844;BME280;1937;51.444;6.484;2023-08-30T13:11:46;69451.91;;;16.55;100.00
3844;BME280;1937;51.444;6.484;2023-08-30T13:14:13;69428.88;;;16.57;100.00
3844;BME280;1937;51.444;6.484;2023-08-30T13:16:39;69435.50;;;16.56;100.00
3844;BME280;1937;51.444;6.484;2023-08-30T13:19:06;69456.69;;;16.59;100.00
3844;BME280;1937;51.444;6.484;2023-08-30T13:21:32;69460.06;;;16.64;100.00
3844;BME280;1937;51.444;6.484;2023-08-30T13:23:59;69517.75;;;16.77;100.00
3844;BME280;1937;51.444;6.484;2023-08-30T13:26:25;69548.00;;;16.99;100.00